Dernières infos :  

13/08/2017  Mise à jour des tableaux d'analyses décadaires
02/08/2017 Mise en ligne de la synthèse climatologique de Juillet 2017 : 
CLIQUEZ ICI
01/08/2017  Mise à jour des tableaux d'analyses décadaires, mensuelles et annuelles : rubrique climatologie

31/07/2017 Vidéo du violent orage de dimanche soir 30/07 : CLIQUEZ ICI   

Si l'entête du tableau ne s'affiche pas correctement, => actualisez la page (F5 avec Internet Explorer, Chrome...).
Utilisez l'ascenseur sur la droite des lignes du tableau pour faire défiler verticalement les jours du mois.

TABLEAU DES DONNEES COMPLETES NOAA de FEVRIER 2017

DATE TEMPERATURE
sous abri
TEMPARATURE 
au sol
VENT  et  Indice de Refroidissement Eolien  PRECIPITATIONS (en mm/m2)
et Intensité
PRESSION ATMOSPHERIQUE (en hPa) HUMIDITE de l'AIR RADIATIONS SOLAIRES (en W/m2)
Mini Moy. Maxi Mini Moy. Maxi Moyen Rafale I.R.E.
Minii
Précip. jour Cumul mois Intensité Maxi Mini Moy. Maxi Mini Moy. Maxi Pic maxi du jour Total jour
01/02/2017 9.9° 11.9° 16.2° 8.3° 11.8° 19.4° 11.4km/h dir SSE 40.2km/h dir SSE 8.1° 0 0 1013.6 1014.8 1016.3 67% 81.1% 88% 445 29 833
02/02/2017 8.7° 11.8° 15.7° 7.2° 11.1° 17.2° 11.3km/h dir SSE 45.1km/h dir S 7.3° 0.2 0.2 1006.7 1009.7 1014 62% 78.2% 89% 608 18 014
03/02/2017 5.7° 8.6° 12.2° 4.4° 8.5° 17.2° 11.3km/h dir SSE 59.5km/h dir S 4.3° 8 8.2 6.6mm/h 1005.5 1008.6 1010.5 70% 84.3% 95% 499 19 279
04/02/2017 4.7° 7.8° 11.9° 0.6° 6.4° 13.3° 12.2km/h dir SSE 51.5km/h dir SSE 2.7° 6.2 14.4 6.8mm/h 999.5 1004.7 1009.2 51% 73.7% 93% 489 7 317
05/02/2017 3.8° 7.1° 8.8° -0.6° 6.2° 9.4° 6.9km/h dir SSE 35.4km/h dir SSE 2.8° 5.4 19.8 10mm/h 1000.1 1002.3 1006.9 69% 87.3% 95% 165 5 495
06/02/2017 4.8° 5.7° 6.7° 4.4° 5.3° 7.8° 5.8km/h dir ONO 30.6km/h dir ONO 2.2° 6.2 26 3.8mm/h 1006.3 1015.6 1020.2 85% 92.3% 96% 176 6 248
07/02/2017 3.4° 6.3° 2.2° 4.8° 6.7° 3.4km/h dir SE 14.5km/h dir SSE 2.4° 5 31 3.4mm/h 1016.1 1017.4 1019.4 95% 96% 97% 163 6 958
08/02/2017 4.7° 5.4° 6.1° 3.9° 5.1° 6.7° 6.4km/h dir NO 20.9km/h dir NO 2.4° 2.6 33.6 1.2mm/h 1016 1019.2 1021.8 92% 94.9% 97% 111 4 759
09/02/2017 2.7° 4.7° 6.6° 2.2° 4.7° 10.6° 8km/h dir NO 25.7km/h dir N 0.8° 0.6 34.2 1018.1 1019.7 1021.8 73% 88.6% 95% 492 14 470
10/02/2017 5.8° 10.3° 1.1° 6.4° 15° 5.1km/h dir SSE 29km/h dir SSE 1.6° 0.2 34.4 1016 1017 1018.1 72% 85.8% 96% 652 23 986
11/02/2017 3.9° 7.4° 11.2° 3.9° 15° 8.7km/h dir SSE 37km/h dir SSE 2.5° 4.8 39.2 3.8mm/h 1015.1 1016.6 1017.5 60% 78.9% 95% 527 12 917
12/02/2017 2.9° 7.1° 15.4° 6.7° 18.3° 2.7km/h dir ENE 16.1km/h dir SSE 2.3° 0.4 39.6 1016.4 1018 1019.4 55% 85.4% 97% 510 25 686
13/02/2017 0.2° 4.9° 11.2° -0.6° 4.8° 14.4° 1.8km/h dir NNE 11.3km/h dir NNE 0.2° 0 39.6 1017.6 1019.4 1021.2 78% 90.9% 97% 631 19 539
14/02/2017 2.8° 7.1° 14° 0.6° 6.6° 18.9° 2.1km/h dir NE 11.3km/h dir NE 2.4° 0 39.6 1021.3 1026.4 1031.2 63% 83.8% 94% 635 27 187
15/02/2017 1.1° 8.1° 16.7° -1.7° 21.7° 2.9km/h dir E 25.7km/h dir S 1.1° 0.2 39.8 1031.3 1033.5 1035.2 53% 80.4% 97% 652 28 098
16/02/2017 2.6° 8.3° 16° -0.6° 7.1° 21.1° 2.4km/h dir SE 12.9km/h dir SSE 1.5° 0 39.8 1029.3 1031.6 1033.9 61% 82.4% 94% 508 30 228
17/02/2017 2.3° 6.2° 11.7° -1.7° 17.2° 3.1km/h dir NNE 12.9km/h dir NO 0.7° 1.2 41 2.2mm/h 1026 1027.6 1029.5 82% 92.5% 96% 596 14 443
18/02/2017 -1.1° 2.8° 10.7° -3.9° 15.6° 2.1km/h dir NNE 9.7km/h dir S -1.3° 0.2 41.2 1023.3 1024.6 1026 63% 90.2% 97% 735 26 326
19/02/2017 -2.7° 4.3° 14° -5° 3.3° 20° 2.9km/h dir ESE 12.9km/h dir S -4.2° 0 41.2 1024.5 1025.6 1027.2 54% 81% 96% 547 35 074
20/02/2017 -1.8° 5.7° 12.7° -4.4° 5.7° 18.9° 2.1km/h dir E 12.9km/h dir O -3.6° 0.2 41.4 1024.6 1026 1027.2 60% 82% 96% 712 32 594
21/02/2017 7.9° 9.3° 11.3° 7.2° 9.1° 12.2° 2.3km/h dir SE 14.5km/h dir S 7.6° 3.2 44.6 1.6mm/h 1022.3 1023.7 1025.6 91% 95.5% 97% 178 6 925
22/02/2017 3.8° 8.9° 13.6° 1.1° 8.1° 16.1° 2.1km/h dir E 14.5km/h dir ONO 3.8° 0.2 44.8 1018.1 1020.7 1022.6 67% 89.3% 97% 533 20 645
23/02/2017 1.6° 9.6° 17.7° -1.7° 8.6° 22.8° 6.4km/h dir S 40.2km/h dir SSE 0.8° 0.6 45.4 1007.5 1012.1 1018 48% 78.1% 97% 617 28 406
24/02/2017 2.8° 7.4° 10° 0.6° 7.4° 18.3° 6.3km/h dir ONO 22.5km/h dir NO 1.2° 1.2 46.6 4mm/h 1011.9 1015.6 1020.7 61% 80.3% 95% 779 28 331
25/02/2017 0.5° 3.6° 9.7° -2.2° 3.5° 15.6° 5km/h dir NO 20.9km/h dir ONO -2.6° 0 46.6 1020.3 1021.3 1023.6 59% 85.7% 95% 828 32 971
26/02/2017 0.3° 6.3° 14.6° -2.2° 5.4° 20° 3.5km/h dir SE 19.3km/h dir 0 -0.8° 0.2 46.8 1016.1 1019 1021.3 50% 77.6% 93% 798 33 783
27/02/2017 -0.1° 8.4° 15.7° -2.2° 7.9° 18.9° 17.5km/h dir S 78.9km/h dir 0 -0.9° 0 46.8 1001.6 1009.1 1016.1 60% 79.7% 95% 628 38 852
28/02/2017 3.2° 7.5° 12.6° 0.6° 6.8° 12.2° 11.3km/h dir SO 61.2km/h dir 0 1.9° 10.2 57 37mm/h 996.8 1002.8 1010.8 60% 83.4% 94% 510 13 066

RETOUR ACCUEIL


Date de création : 04/03/2017 : 22:18
Catégorie : ANNEE 2017 - MOIS PASSES - FEVRIER 2017
Page lue 341 fois


Réactions à cet article

Personne n'a encore laissé de commentaire.
Soyez donc le premier !